Time;durP1;ratioP1;P1;durP2;ratioP2;P2;SDS_P1;SDS_P2;PMS_P1;PMS_P2;Temp;Humidity;BMP_temperature;BMP_pressure;BME280_temperature;BME280_humidity;BME280_pressure;Samples;Min_cycle;Max_cycle;Signal;HPM_P1;HPM_P2
2023/01/06 00:02:10;;;;;;;;;;;;;;;5.72;99.90;98157.31;102225;1301;22443;-71
2023/01/06 00:04:37;;;;;;;3.50;2.10;;;;;;;5.71;99.96;98166.17;102173;1315;23896;-72
2023/01/06 00:07:04;;;;;;;;;;;;;;;5.68;99.99;98168.73;102061;1315;137772;-73
2023/01/06 00:09:33;;;;;;;3.50;1.60;;;;;;;5.64;100.00;98169.25;102131;1293;22834;-73
2023/01/06 00:12:00;;;;;;;3.80;1.60;;;;;;;5.59;100.00;98173.54;102053;1301;137928;-72
2023/01/06 00:14:26;;;;;;;2.40;1.40;;;;;;;5.54;100.00;98180.41;102252;1301;24256;-73
2023/01/06 00:16:53;;;;;;;2.20;1.40;;;;;;;5.51;100.00;98178.77;102097;1300;22611;-72
2023/01/06 00:19:20;;;;;;;1.20;1.10;;;;;;;5.49;100.00;98179.45;105652;1315;138193;-72
2023/01/06 00:21:46;;;;;;;;;;;;;;;5.47;100.00;98181.45;106309;1308;22402;-73
2023/01/06 00:24:13;;;;;;;2.60;1.40;;;;;;;5.44;100.00;98184.98;106258;1308;125686;-73
2023/01/06 00:26:40;;;;;;;2.10;1.50;;;;;;;5.42;100.00;98184.05;106347;1308;22470;-73
2023/01/06 00:29:08;;;;;;;1.70;1.20;;;;;;;5.41;100.00;98187.92;106210;1308;139534;-72
2023/01/06 00:31:38;;;;;;;3.40;1.40;;;;;;;5.41;100.00;98192.63;106167;1308;22323;-72
2023/01/06 00:34:08;;;;;;;2.20;1.40;;;;;;;5.40;100.00;98192.45;106331;1308;23001;-73
2023/01/06 00:36:34;;;;;;;3.30;1.40;;;;;;;5.39;100.00;98198.33;106004;1308;138139;-73
2023/01/06 00:39:01;;;;;;;1.90;1.30;;;;;;;5.38;100.00;98203.13;106306;1309;22317;-73
2023/01/06 00:44:16;;;;;;;2.50;1.20;;;;;;;5.38;100.00;98207.88;106344;1308;22251;-73
2023/01/06 00:46:43;;;;;;;1.90;1.60;;;;;;;5.38;100.00;98212.09;106357;1308;23166;-73
2023/01/06 00:49:10;;;;;;;;;;;;;;;5.38;100.00;98213.17;106057;1308;139120;-72
2023/01/06 00:51:38;;;;;;;1.20;1.10;;;;;;;5.34;100.00;98211.08;106333;1308;22016;-72
2023/01/06 00:54:06;;;;;;;4.20;1.50;;;;;;;5.36;100.00;98217.42;106156;1308;138401;-73
2023/01/06 00:56:41;;;;;;;2.70;1.40;;;;;;;5.36;100.00;98219.46;106366;1308;23081;-72
2023/01/06 00:59:08;;;;;;;4.30;1.30;;;;;;;5.35;100.00;98220.42;106068;1309;139374;-73
2023/01/06 01:01:35;;;;;;;1.70;1.10;;;;;;;5.35;100.00;98222.05;106344;1308;22224;-72
2023/01/06 01:04:02;;;;;;;;;;;;;;;5.34;100.00;98227.72;106311;1309;22339;-73
2023/01/06 01:06:28;;;;;;;2.80;1.10;;;;;;;5.33;100.00;98232.53;106141;1309;125638;-73
2023/01/06 01:08:57;;;;;;;1.20;0.90;;;;;;;5.32;100.00;98230.27;106365;1308;23006;-73
2023/01/06 01:14:10;;;;;;;2.00;1.20;;;;;;;5.30;100.00;98239.25;106319;1308;22138;-73
2023/01/06 01:16:37;;;;;;;1.50;1.20;;;;;;;5.30;100.00;98240.92;106236;1309;22373;-72
2023/01/06 01:19:04;;;;;;;0.90;0.80;;;;;;;5.29;100.00;98251.02;106253;1308;138732;-73
2023/01/06 01:21:31;;;;;;;1.50;1.10;;;;;;;5.28;100.00;98249.44;106310;1308;22154;-73
2023/01/06 01:23:57;;;;;;;1.90;1.20;;;;;;;5.26;100.00;98253.41;106235;1308;138916;-73
2023/01/06 01:26:24;;;;;;;2.80;0.90;;;;;;;5.25;100.00;98252.91;106300;1308;22180;-72
2023/01/06 01:28:51;;;;;;;;;;;;;;;5.24;100.00;98261.98;106372;1308;22357;-73
2023/01/06 01:31:19;;;;;;;0.90;0.90;;;;;;;5.24;100.00;98273.74;106260;1308;124320;-73
2023/01/06 01:33:46;;;;;;;3.20;1.30;;;;;;;5.20;100.00;98273.38;106406;1308;22215;-73
2023/01/06 01:36:13;;;;;;;;;;;;;;;5.11;99.99;98280.41;106230;1308;138105;-73
2023/01/06 01:38:40;;;;;;;1.40;1.10;;;;;;;5.01;100.00;98288.19;106361;1308;22194;-73
2023/01/06 01:41:07;;;;;;;;;;;;;;;4.91;99.63;98294.54;106319;1308;138171;-72
2023/01/06 01:43:45;;;;;;;3.70;2.50;;;;;;;4.69;98.78;98302.84;106182;1310;22134;-73
2023/01/06 01:46:13;;;;;;;2.90;2.00;;;;;;;4.50;97.79;98313.70;106240;1308;22139;-73
2023/01/06 01:48:40;;;;;;;3.90;2.20;;;;;;;4.28;97.59;98316.23;105980;1309;137742;-73
2023/01/06 01:51:15;;;;;;;2.90;1.80;;;;;;;4.11;97.63;98324.91;106347;1308;22204;-73
2023/01/06 01:53:45;;;;;;;4.10;2.10;;;;;;;3.98;97.67;98336.89;106322;1308;138853;-72
2023/01/06 01:56:16;;;;;;;4.10;2.70;;;;;;;3.85;97.88;98342.13;106090;1312;22203;-73
2023/01/06 01:59:08;;;;;;;3.90;2.40;;;;;;;3.69;97.41;98343.17;106186;1308;22354;-73
2023/01/06 02:01:34;;;;;;;3.60;2.40;;;;;;;3.47;97.14;98345.85;106271;1295;22130;-73
2023/01/06 02:04:01;;;;;;;3.40;2.50;;;;;;;3.32;97.47;98352.30;106173;1308;23016;-73
2023/01/06 02:06:28;;;;;;;3.20;2.40;;;;;;;3.19;97.47;98362.48;106210;1308;138935;-73
2023/01/06 02:08:59;;;;;;;2.60;2.40;;;;;;;3.07;97.70;98366.39;106171;1308;22269;-73
2023/01/06 02:11:26;;;;;;;3.00;2.20;;;;;;;2.95;97.76;98376.80;105964;1308;141568;-73
2023/01/06 02:13:56;;;;;;;3.30;2.70;;;;;;;2.84;97.84;98383.77;106113;1310;22813;-73
2023/01/06 02:16:38;;;;;;;3.00;2.50;;;;;;;2.75;98.12;98385.78;106232;1310;22263;-73
2023/01/06 02:19:19;;;;;;;5.70;2.20;;;;;;;2.67;98.06;98392.64;106035;1310;137723;-74
2023/01/06 02:22:07;;;;;;;3.90;2.40;;;;;;;2.53;97.88;98395.71;106354;1308;22572;-73
2023/01/06 02:24:42;;;;;;;;;;;;;;;2.43;98.00;98410.85;106234;1308;137609;-74
2023/01/06 02:27:20;;;;;;;2.70;2.00;;;;;;;2.31;98.02;98415.52;106176;1298;22206;-72
2023/01/06 02:30:22;;;;;;;1.50;1.40;;;;;;;2.22;98.19;98420.17;105899;1308;137951;-72
2023/01/06 02:35:38;;;;;;;1.60;1.20;;;;;;;2.11;98.19;98436.79;100823;1343;545089;-72
2023/01/06 02:38:53;;;;;;;1.30;1.20;;;;;;;2.02;98.23;98448.33;101751;1306;24365;-72
2023/01/06 02:41:28;;;;;;;2.20;1.30;;;;;;;1.94;98.31;98450.48;101892;1311;137242;-72
2023/01/06 02:44:30;;;;;;;0.80;0.80;;;;;;;1.86;98.23;98452.58;101754;1324;22522;-73
2023/01/06 02:47:19;;;;;;;1.30;1.20;;;;;;;1.79;98.45;98461.39;101177;1306;25035;-74
2023/01/06 02:49:51;;;;;;;1.30;1.20;;;;;;;1.71;98.43;98465.27;101529;1314;126582;-73
2023/01/06 02:52:32;;;;;;;1.40;1.30;;;;;;;1.65;98.51;98470.26;101409;1306;23875;-73
2023/01/06 02:55:21;;;;;;;1.90;1.70;;;;;;;1.62;98.62;98473.27;105056;1322;137882;-73
2023/01/06 02:57:56;;;;;;;1.20;1.10;;;;;;;1.59;98.74;98485.48;105625;1316;22510;-73
2023/01/06 03:00:37;;;;;;;1.40;1.30;;;;;;;1.54;98.49;98493.95;105426;1317;137264;-73
2023/01/06 03:03:08;;;;;;;1.40;1.30;;;;;;;1.50;98.81;98509.39;105455;1315;22191;-73
2023/01/06 03:05:35;;;;;;;1.60;1.40;;;;;;;1.47;98.64;98517.02;105298;1321;138596;-73
2023/01/06 03:08:05;;;;;;;1.40;1.20;;;;;;;1.45;98.62;98526.09;105588;1316;22180;-73
2023/01/06 03:10:32;;;;;;;1.80;1.70;;;;;;;1.44;98.76;98532.14;105258;1318;22189;-73
2023/01/06 03:13:06;;;;;;;1.30;1.20;;;;;;;1.43;98.78;98536.90;105404;1318;137822;-73
2023/01/06 03:15:33;;;;;;;1.70;1.50;;;;;;;1.42;98.74;98539.39;105219;1319;23084;-73
2023/01/06 03:18:00;;;;;;;1.90;1.70;;;;;;;1.41;98.80;98543.36;105694;1309;138474;-73
2023/01/06 03:20:27;;;;;;;2.30;1.80;;;;;;;1.42;98.66;98547.55;106254;1309;22232;-72
2023/01/06 03:22:54;;;;;;;2.40;1.70;;;;;;;1.40;98.66;98555.29;106192;1310;22250;-72
2023/01/06 03:25:21;;;;;;;2.40;1.90;;;;;;;1.39;98.56;98560.51;105927;1309;137554;-73
2023/01/06 03:27:48;;;;;;;2.00;1.70;;;;;;;1.37;98.40;98566.39;106076;1309;22255;-72
2023/01/06 03:30:14;;;;;;;;;;;;;;;1.33;98.45;98573.35;106111;1309;137462;-72
2023/01/06 03:32:55;;;;;;;2.30;2.00;;;;;;;1.31;98.34;98582.25;106225;1309;23047;-73
2023/01/06 03:35:50;;;;;;;2.90;2.40;;;;;;;1.29;98.43;98588.77;105977;1309;137973;-72
2023/01/06 03:38:33;;;;;;;2.50;1.90;;;;;;;1.26;98.44;98600.52;106213;1309;22105;-73
2023/01/06 03:41:09;;;;;;;2.90;2.20;;;;;;;1.23;98.21;98608.21;106246;1310;22249;-72
2023/01/06 03:43:40;;;;;;;2.30;1.90;;;;;;;1.18;98.16;98603.09;106248;1309;23012;-72
2023/01/06 03:46:29;;;;;;;2.40;2.10;;;;;;;1.16;98.19;98607.33;106047;1312;22974;-73
2023/01/06 03:49:03;;;;;;;3.20;2.50;;;;;;;1.17;98.40;98613.52;105899;1312;137304;-72
2023/01/06 03:51:49;;;;;;;2.70;2.30;;;;;;;1.17;98.42;98619.36;105923;1310;22129;-73
2023/01/06 03:54:29;;;;;;;2.50;2.30;;;;;;;1.15;98.32;98626.08;106002;1309;138982;-73
2023/01/06 03:57:04;;;;;;;2.80;2.30;;;;;;;1.07;97.58;98623.66;106101;1309;22199;-72
2023/01/06 03:59:33;;;;;;;3.30;3.00;;;;;;;1.04;97.66;98630.48;105882;1310;137562;-72
2023/01/06 04:02:01;;;;;;;4.90;3.70;;;;;;;1.02;97.60;98640.02;105767;1312;22942;-72
2023/01/06 04:04:29;;;;;;;3.60;2.90;;;;;;;0.99;97.81;98646.92;105838;1312;22285;-73
2023/01/06 04:06:56;;;;;;;3.40;2.90;;;;;;;1.01;97.75;98659.58;106101;1309;137384;-72
2023/01/06 04:09:24;;;;;;;3.40;3.00;;;;;;;0.98;97.74;98663.68;106112;1310;23137;-72
2023/01/06 04:14:37;;;;;;;3.40;3.10;;;;;;;0.95;97.77;98679.13;106052;1312;22129;-72
2023/01/06 04:17:04;;;;;;;3.30;2.60;;;;;;;0.93;97.65;98685.38;105965;1309;22125;-72
2023/01/06 04:19:31;;;;;;;2.90;2.60;;;;;;;0.91;97.60;98695.83;105973;1309;137996;-72
2023/01/06 04:21:58;;;;;;;3.60;3.20;;;;;;;0.89;97.65;98703.38;106139;1309;22138;-72
2023/01/06 04:24:27;;;;;;;3.50;3.20;;;;;;;0.84;97.65;98694.99;105991;1312;137331;-72
2023/01/06 04:26:54;;;;;;;4.20;3.50;;;;;;;0.86;97.39;98717.16;106097;1309;23219;-71
2023/01/06 04:29:21;;;;;;;4.70;3.60;;;;;;;0.83;97.38;98720.34;105985;1310;138544;-73
2023/01/06 04:31:48;;;;;;;4.00;3.50;;;;;;;0.81;97.29;98725.88;105942;1309;22125;-72
2023/01/06 04:34:15;;;;;;;;;;;;;;;0.78;97.25;98728.89;106054;1312;22440;-72
2023/01/06 04:36:43;;;;;;;;;;;;;;;0.78;97.16;98732.73;105981;1309;125641;-72
2023/01/06 04:39:10;;;;;;;6.30;4.60;;;;;;;0.79;97.45;98738.52;106068;1312;22158;-72
2023/01/06 04:41:37;;;;;;;6.90;4.70;;;;;;;0.78;96.97;98749.33;105970;1312;138419;-72
2023/01/06 04:44:03;;;;;;;5.90;4.70;;;;;;;0.77;96.74;98755.96;106103;1312;22133;-72
2023/01/06 04:46:30;;;;;;;;;;;;;;;0.75;96.50;98763.90;106273;1312;22451;-72
2023/01/06 04:48:57;;;;;;;6.90;4.90;;;;;;;0.71;96.61;98770.31;106036;1312;123768;-72
2023/01/06 04:51:24;;;;;;;7.10;5.00;;;;;;;0.70;96.64;98773.34;106209;1312;22860;-72
2023/01/06 04:53:50;;;;;;;9.20;5.40;;;;;;;0.68;96.38;98782.50;106405;1306;137822;-73
2023/01/06 04:56:17;;;;;;;7.40;5.30;;;;;;;0.65;95.99;98795.27;106494;1306;22626;-72
2023/01/06 04:58:46;;;;;;;8.20;5.50;;;;;;;0.63;96.28;98806.09;106505;1306;22132;-72
2023/01/06 05:01:13;;;;;;;;;;;;;;;0.63;96.39;98812.94;106402;1306;137968;-72
2023/01/06 05:03:39;;;;;;;6.50;5.00;;;;;;;0.63;96.55;98811.04;106499;1306;22120;-73
2023/01/06 05:06:10;;;;;;;;;;;;;;;0.65;96.72;98814.21;106400;1309;137510;-72
2023/01/06 05:08:37;;;;;;;8.30;6.10;;;;;;;0.67;96.54;98825.23;106493;1309;22131;-73
2023/01/06 05:11:10;;;;;;;6.70;5.80;;;;;;;0.68;96.64;98837.43;106501;1305;23027;-73
2023/01/06 05:13:37;;;;;;;7.30;5.10;;;;;;;0.65;96.68;98841.77;106385;1309;22475;-72
2023/01/06 05:16:07;;;;;;;;;;;;;;;0.66;96.41;98859.45;106516;1306;23222;-72
2023/01/06 05:18:34;;;;;;;8.80;5.60;;;;;;;0.62;96.42;98866.09;106409;1309;123800;-72
2023/01/06 05:21:01;;;;;;;;;;;;;;;0.61;96.32;98875.95;106527;1306;22506;-72
2023/01/06 05:23:27;;;;;;;7.70;5.60;;;;;;;0.60;96.32;98883.50;106429;1306;124610;-71
2023/01/06 05:25:54;;;;;;;7.90;4.80;;;;;;;0.57;96.05;98884.50;106464;1309;22139;-71
2023/01/06 05:28:21;;;;;;;8.20;6.70;;;;;;;0.53;96.22;98889.14;106503;1306;22867;-71
2023/01/06 05:30:47;;;;;;;;;;;;;;;0.53;96.38;98892.39;106321;1309;137824;-71
2023/01/06 05:33:14;;;;;;;5.20;4.00;;;;;;;0.52;96.30;98902.83;106485;1309;22160;-71
2023/01/06 05:35:41;;;;;;;5.60;4.70;;;;;;;0.52;96.20;98901.50;106399;1306;138005;-71
2023/01/06 05:38:08;;;;;;;7.80;5.00;;;;;;;0.51;96.39;98901.38;106575;1306;22193;-72
2023/01/06 05:40:34;;;;;;;5.80;4.60;;;;;;;0.51;96.47;98905.66;106560;1306;22232;-72
2023/01/06 05:43:01;;;;;;;9.10;5.80;;;;;;;0.51;96.51;98907.11;106454;1306;137339;-72
2023/01/06 05:45:28;;;;;;;;;;;;;;;0.52;96.39;98921.41;106529;1306;23610;-72
2023/01/06 05:47:56;;;;;;;7.70;5.30;;;;;;;0.52;96.54;98926.86;106372;1306;124011;-72
2023/01/06 05:50:23;;;;;;;12.10;5.70;;;;;;;0.50;96.71;98930.81;106555;1306;22092;-72
2023/01/06 05:52:50;;;;;;;;;;;;;;;0.49;96.67;98936.30;106524;1306;23210;-72
2023/01/06 05:55:16;;;;;;;7.60;5.60;;;;;;;0.48;96.74;98937.17;106349;1306;123835;-72
2023/01/06 05:57:43;;;;;;;6.80;4.80;;;;;;;0.47;96.76;98944.30;106478;1306;22760;-72
2023/01/06 06:00:10;;;;;;;5.70;4.50;;;;;;;0.44;96.93;98943.84;106336;1306;138596;-72
2023/01/06 06:02:40;;;;;;;5.60;4.20;;;;;;;0.41;96.78;98955.20;106458;1306;22240;-73
2023/01/06 06:05:07;;;;;;;6.10;4.30;;;;;;;0.38;97.00;98963.77;106470;1306;22117;-72
2023/01/06 06:07:33;;;;;;;;;;;;;;;0.38;97.14;98969.63;106407;1306;137612;-72
2023/01/06 06:10:00;;;;;;;4.50;3.50;;;;;;;0.38;97.26;98971.48;106520;1306;22086;-72
2023/01/06 06:12:27;;;;;;;4.10;3.10;;;;;;;0.35;96.82;98978.69;106392;1307;137533;-72
2023/01/06 06:14:54;;;;;;;;;;;;;;;0.33;96.57;98987.09;106534;1306;22366;-73
2023/01/06 06:17:21;;;;;;;3.80;2.80;;;;;;;0.30;96.37;98995.29;106408;1306;123262;-72
2023/01/06 06:19:48;;;;;;;;;;;;;;;0.29;96.25;99001.15;106515;1306;23322;-72
2023/01/06 06:22:14;;;;;;;7.00;3.70;;;;;;;0.27;96.42;99010.80;106549;1306;22287;-71
2023/01/06 06:24:41;;;;;;;5.60;4.40;;;;;;;0.24;96.52;99020.11;106389;1300;137867;-72
2023/01/06 06:27:08;;;;;;;5.30;3.70;;;;;;;0.24;96.40;99030.70;106440;1307;22531;-72
2023/01/06 06:29:34;;;;;;;;;;;;;;;0.21;96.25;99035.35;106369;1306;137980;-72
2023/01/06 06:32:01;;;;;;;4.10;3.00;;;;;;;0.19;95.97;99040.36;106507;1306;22202;-72
2023/01/06 06:34:28;;;;;;;4.10;2.80;;;;;;;0.16;95.92;99048.48;106491;1306;23149;-73
2023/01/06 06:36:55;;;;;;;2.90;2.50;;;;;;;0.11;95.10;99050.58;106288;1307;137872;-72
2023/01/06 06:39:21;;;;;;;6.70;4.30;;;;;;;0.07;95.48;99057.86;106473;1306;22226;-72
2023/01/06 06:41:48;;;;;;;4.30;3.60;;;;;;;0.06;95.41;99063.20;106311;1306;139234;-72
2023/01/06 06:44:15;;;;;;;5.30;3.60;;;;;;;0.06;95.42;99074.14;106424;1308;22152;-72
2023/01/06 06:46:42;;;;;;;3.90;3.00;;;;;;;0.07;95.17;99082.25;106510;1306;22876;-72
2023/01/06 06:49:09;;;;;;;4.20;2.80;;;;;;;0.06;94.94;99089.98;106357;1306;137623;-72
2023/01/06 06:51:35;;;;;;;;;;;;;;;0.04;94.46;99098.01;106473;1306;22806;-72
2023/01/06 06:54:03;;;;;;;4.80;3.10;;;;;;;0.01;94.70;99100.20;106369;1306;123530;-72
2023/01/06 06:56:30;;;;;;;4.70;3.20;;;;;;;-0.01;94.64;99103.45;106578;1306;22219;-72
2023/01/06 06:58:56;;;;;;;3.50;3.10;;;;;;;-0.01;94.69;99110.40;106459;1306;22984;-72
2023/01/06 07:01:23;;;;;;;4.50;2.90;;;;;;;-0.02;94.63;99116.92;106387;1306;139531;-73
2023/01/06 07:03:50;;;;;;;;;;;;;;;-0.03;94.67;99125.45;106445;1306;22358;-73
2023/01/06 07:06:18;;;;;;;3.30;2.60;;;;;;;-0.04;94.70;99131.29;106390;1306;124430;-71
2023/01/06 07:08:45;;;;;;;4.20;2.60;;;;;;;-0.06;94.51;99142.43;106342;1307;23859;-71
2023/01/06 07:11:12;;;;;;;3.50;2.50;;;;;;;-0.09;94.28;99144.10;106358;1305;138069;-71
2023/01/06 07:13:39;;;;;;;;;;;;;;;-0.13;94.03;99157.26;106522;1305;22467;-72
2023/01/06 07:16:06;;;;;;;5.50;3.20;;;;;;;-0.19;93.61;99169.77;106488;1306;22167;-73
2023/01/06 07:18:32;;;;;;;;;;;;;;;-0.26;93.10;99182.85;106301;1306;137937;-72
2023/01/06 07:20:59;;;;;;;5.70;3.20;;;;;;;-0.31;92.85;99191.10;106454;1303;22232;-73
2023/01/06 07:23:26;;;;;;;4.80;3.50;;;;;;;-0.38;92.46;99198.38;106392;1305;138356;-73
2023/01/06 07:25:53;;;;;;;5.80;3.60;;;;;;;-0.44;92.66;99207.16;106534;1305;22565;-73
2023/01/06 07:28:20;;;;;;;5.90;3.20;;;;;;;-0.46;92.63;99215.88;103654;1298;22503;-73
2023/01/06 07:30:47;;;;;;;4.80;2.60;;;;;;;-0.49;92.38;99215.77;102562;1291;137734;-71
2023/01/06 07:33:14;;;;;;;;;;;;;;;-0.50;92.55;99220.21;102614;1292;24329;-72
2023/01/06 07:35:41;;;;;;;6.20;2.80;;;;;;;-0.50;92.71;99228.94;102422;1289;124284;-71
2023/01/06 07:38:07;;;;;;;;;;;;;;;-0.50;93.01;99230.08;102631;1313;22518;-72
2023/01/06 07:40:35;;;;;;;3.50;2.70;;;;;;;-0.49;92.94;99236.22;102732;1298;22489;-72
2023/01/06 07:43:05;;;;;;;3.80;3.10;;;;;;;-0.51;92.91;99243.91;106539;1303;137913;-72
2023/01/06 07:45:32;;;;;;;5.50;2.70;;;;;;;-0.53;92.94;99251.67;106601;1303;22211;-72
2023/01/06 07:47:59;;;;;;;;;;;;;;;-0.53;92.92;99262.41;106484;1305;138047;-72
2023/01/06 07:50:26;;;;;;;4.00;2.90;;;;;;;-0.55;92.77;99262.59;106585;1303;22995;-71
2023/01/06 07:52:52;;;;;;;;;;;;;;;-0.54;92.76;99266.23;106696;1303;22429;-72
2023/01/06 07:55:19;;;;;;;5.90;3.30;;;;;;;-0.54;92.40;99279.93;106515;1303;125390;-71
2023/01/06 07:57:46;;;;;;;4.30;3.60;;;;;;;-0.55;92.77;99285.94;106694;1303;22223;-71
2023/01/06 08:00:13;;;;;;;4.10;3.40;;;;;;;-0.54;93.04;99289.27;106499;1303;137508;-72
2023/01/06 08:02:40;;;;;;;9.50;5.80;;;;;;;-0.57;93.21;99288.42;106596;1303;22836;-72
2023/01/06 08:05:07;;;;;;;;;;;;;;;-0.61;93.32;99299.20;106702;1303;22509;-71
2023/01/06 08:07:34;;;;;;;7.70;5.30;;;;;;;-0.63;93.50;99308.27;106534;1303;125073;-71
2023/01/06 08:10:01;;;;;;;7.00;4.60;;;;;;;-0.63;93.85;99316.29;106671;1303;22158;-71
2023/01/06 08:12:27;;;;;;;7.10;3.90;;;;;;;-0.64;93.65;99330.77;106462;1303;137824;-71
2023/01/06 08:14:54;;;;;;;5.20;4.20;;;;;;;-0.63;93.62;99338.48;106568;1297;22123;-71
2023/01/06 08:17:21;;;;;;;5.90;4.40;;;;;;;-0.66;93.14;99349.27;106457;1303;137937;-71
2023/01/06 08:19:47;;;;;;;6.70;5.00;;;;;;;-0.71;92.98;99354.55;106568;1303;22191;-72
2023/01/06 08:22:14;;;;;;;7.00;4.90;;;;;;;-0.78;93.09;99359.97;106609;1305;23061;-72
2023/01/06 08:24:41;;;;;;;4.40;3.60;;;;;;;-0.76;93.12;99372.27;106533;1297;137977;-72
2023/01/06 08:27:08;;;;;;;6.10;4.50;;;;;;;-0.77;92.53;99374.67;106564;1303;22322;-72
2023/01/06 08:29:34;;;;;;;;;;;;;;;-0.75;92.87;99380.88;106481;1306;138152;-71
2023/01/06 08:32:01;;;;;;;8.10;5.20;;;;;;;-0.73;92.86;99395.17;106557;1298;22917;-71
2023/01/06 08:34:36;;;;;;;7.90;5.50;;;;;;;-0.77;92.21;99395.79;106548;1306;22851;-72
2023/01/06 08:37:03;;;;;;;5.90;4.90;;;;;;;-0.79;91.79;99401.02;106423;1299;137386;-72
2023/01/06 08:39:30;;;;;;;8.60;6.00;;;;;;;-0.83;91.52;99410.63;106584;1303;22141;-72
2023/01/06 08:41:57;;;;;;;7.90;5.80;;;;;;;-0.88;91.58;99406.97;106484;1303;137797;-71
2023/01/06 08:44:23;;;;;;;8.40;6.30;;;;;;;-0.91;92.09;99409.93;106585;1303;22114;-71
2023/01/06 08:46:50;;;;;;;9.50;5.90;;;;;;;-0.92;91.85;99411.98;106575;1303;23147;-72
2023/01/06 08:49:17;;;;;;;8.50;6.20;;;;;;;-0.92;91.64;99421.35;106546;1306;138208;-72
2023/01/06 08:51:44;;;;;;;9.30;6.40;;;;;;;-0.93;91.40;99419.98;106583;1305;22257;-71
2023/01/06 08:54:10;;;;;;;7.80;5.80;;;;;;;-0.92;91.55;99423.48;106467;1303;137931;-72
2023/01/06 08:56:37;;;;;;;8.10;6.40;;;;;;;-0.93;91.53;99426.48;106564;1296;23125;-72
2023/01/06 08:59:04;;;;;;;9.50;5.80;;;;;;;-0.94;91.60;99425.27;106581;1303;22195;-72
2023/01/06 09:01:33;;;;;;;8.40;5.80;;;;;;;-0.96;91.75;99425.16;106475;1306;138199;-72
2023/01/06 09:04:01;;;;;;;8.10;6.40;;;;;;;-0.97;91.74;99419.63;106580;1303;22481;-71
2023/01/06 09:06:28;;;;;;;8.80;6.20;;;;;;;-0.99;91.89;99408.58;106540;1303;137980;-72
2023/01/06 09:08:55;;;;;;;7.40;5.70;;;;;;;-0.98;92.20;99410.95;106606;1303;22114;-72
2023/01/06 09:11:22;;;;;;;11.70;7.10;;;;;;;-0.99;92.26;99408.29;106487;1303;137899;-71
2023/01/06 09:13:52;;;;;;;;;;;;;;;-0.94;92.14;99423.55;106584;1306;22434;-72
2023/01/06 09:16:19;;;;;;;6.20;5.10;;;;;;;-0.96;92.17;99424.83;106589;1303;22138;-71
2023/01/06 09:18:49;;;;;;;8.40;5.80;;;;;;;-0.97;92.56;99427.04;106525;1303;138153;-71
2023/01/06 09:21:17;;;;;;;7.80;6.00;;;;;;;-0.95;92.55;99432.58;106621;1306;22116;-71
2023/01/06 09:23:43;;;;;;;8.60;5.90;;;;;;;-0.94;92.46;99436.88;106474;1303;138185;-71
2023/01/06 09:26:10;;;;;;;7.10;5.00;;;;;;;-0.97;92.55;99439.75;106568;1306;22166;-70
2023/01/06 09:28:37;;;;;;;6.50;4.30;;;;;;;-1.02;92.32;99451.99;106678;1303;22159;-70
2023/01/06 09:31:03;;;;;;;5.40;4.80;;;;;;;-1.10;92.04;99455.89;106543;1303;137749;-70
2023/01/06 09:33:30;;;;;;;;;;;;;;;-1.14;92.22;99459.64;106606;1303;22453;-70
2023/01/06 09:35:57;;;;;;;5.10;4.20;;;;;;;-1.18;92.19;99464.08;106456;1303;124244;-70
2023/01/06 09:38:25;;;;;;;5.40;3.90;;;;;;;-1.26;91.57;99467.08;106646;1303;22238;-71
2023/01/06 09:41:07;;;;;;;8.60;3.60;;;;;;;-1.33;91.37;99464.23;106544;1298;23386;-69
2023/01/06 09:43:54;;;;;;;4.60;3.50;;;;;;;-1.39;91.09;99467.66;106430;1306;137952;-70
2023/01/06 09:46:27;;;;;;;3.20;2.40;;;;;;;-1.44;90.84;99460.52;106455;1303;22133;-70
2023/01/06 09:49:00;;;;;;;4.80;3.90;;;;;;;-1.45;90.56;99466.05;106470;1303;137974;-70
2023/01/06 09:51:27;;;;;;;4.00;3.20;;;;;;;-1.47;90.70;99468.72;106615;1294;22329;-70
2023/01/06 09:54:33;;;;;;;5.30;3.70;;;;;;;-1.47;90.56;99473.27;106549;1303;137880;-70
2023/01/06 09:57:05;;;;;;;5.90;4.70;;;;;;;-1.50;90.42;99480.49;105847;1311;22296;-70
2023/01/06 09:59:35;;;;;;;4.00;3.40;;;;;;;-1.52;90.26;99487.93;105712;1314;137371;-70
2023/01/06 10:02:01;;;;;;;7.50;4.70;;;;;;;-1.59;90.44;99486.13;105513;1314;22906;-70
2023/01/06 10:04:28;;;;;;;;;;;;;;;-1.59;90.46;99495.35;105699;1313;22496;-69
2023/01/06 10:07:14;;;;;;;4.50;3.50;;;;;;;-1.63;90.19;99502.77;105671;1314;124312;-70
2023/01/06 10:10:13;;;;;;;7.70;4.60;;;;;;;-1.71;90.07;99506.48;105858;1314;22971;-70
2023/01/06 10:12:46;;;;;;;5.50;4.40;;;;;;;-1.74;90.58;99504.48;105723;1313;137729;-70
2023/01/06 10:15:35;;;;;;;6.20;4.30;;;;;;;-1.76;90.47;99503.81;105826;1312;23070;-70
2023/01/06 10:18:25;;;;;;;5.50;4.00;;;;;;;-1.73;90.58;99518.37;105563;1311;138797;-71
2023/01/06 10:21:06;;;;;;;6.90;4.40;;;;;;;-1.73;90.90;99521.94;105766;1314;22495;-72
2023/01/06 10:23:36;;;;;;;6.80;4.50;;;;;;;-1.72;90.65;99530.56;105521;1314;138520;-71
2023/01/06 10:26:21;;;;;;;7.10;5.20;;;;;;;-1.75;90.64;99535.52;105728;1299;22605;-71
2023/01/06 10:28:52;;;;;;;9.10;5.30;;;;;;;-1.80;90.47;99541.09;105785;1313;22168;-71
2023/01/06 10:31:21;;;;;;;8.70;5.50;;;;;;;-1.83;90.61;99550.81;105689;1313;137367;-72
2023/01/06 10:33:50;;;;;;;7.30;5.70;;;;;;;-1.87;90.73;99555.75;105922;1306;23117;-72
2023/01/06 10:36:19;;;;;;;6.30;4.40;;;;;;;-1.89;90.96;99564.31;106402;1306;137157;-71
2023/01/06 10:38:48;;;;;;;6.40;4.00;;;;;;;-1.91;90.55;99566.98;106461;1306;22286;-71
2023/01/06 10:41:42;;;;;;;7.10;4.50;;;;;;;-1.94;90.22;99570.45;106307;1303;138256;-71
2023/01/06 10:44:09;;;;;;;4.60;3.60;;;;;;;-1.97;89.99;99567.93;106549;1300;22877;-72
2023/01/06 10:46:38;;;;;;;5.30;3.30;;;;;;;-2.01;88.91;99571.65;106564;1305;22105;-72
2023/01/06 10:49:11;;;;;;;9.20;4.20;;;;;;;-2.08;88.20;99577.20;104910;1308;139594;-72
2023/01/06 10:51:39;;;;;;;5.50;3.00;;;;;;;-2.11;88.62;99590.04;106465;1306;23044;-72
2023/01/06 10:54:09;;;;;;;5.00;3.00;;;;;;;-2.12;88.00;99593.90;106455;1303;139401;-72
2023/01/06 10:56:35;;;;;;;4.80;3.00;;;;;;;-2.14;88.06;99597.98;106586;1306;22141;-73
2023/01/06 10:59:09;;;;;;;3.60;2.40;;;;;;;-2.16;87.86;99604.46;106518;1303;22184;-73
2023/01/06 11:01:50;;;;;;;2.80;2.40;;;;;;;-2.17;87.42;99604.67;106443;1303;137252;-72
2023/01/06 11:04:18;;;;;;;3.70;2.20;;;;;;;-2.19;87.56;99607.88;106585;1303;22157;-73
2023/01/06 11:06:55;;;;;;;5.20;2.30;;;;;;;-2.19;87.48;99608.38;106465;1304;137320;-73
2023/01/06 11:09:24;;;;;;;2.60;1.90;;;;;;;-2.19;87.35;99604.84;106527;1303;22826;-72
2023/01/06 11:11:51;;;;;;;4.20;2.50;;;;;;;-2.23;86.28;99605.88;106547;1303;138101;-73
2023/01/06 11:14:19;;;;;;;3.30;2.10;;;;;;;-2.31;85.94;99601.38;106486;1303;23052;-72
2023/01/06 11:17:13;;;;;;;3.30;1.90;;;;;;;-2.35;86.59;99606.52;106570;1303;22114;-72
2023/01/06 11:19:41;;;;;;;4.10;2.40;;;;;;;-2.32;87.45;99610.06;106501;1306;22200;-72
2023/01/06 11:22:35;;;;;;;3.40;2.30;;;;;;;-2.30;86.90;99615.74;106616;1303;22199;-73
2023/01/06 11:25:20;;;;;;;4.20;2.00;;;;;;;-2.29;86.80;99621.23;106384;1305;137901;-72
2023/01/06 11:27:51;;;;;;;2.50;1.80;;;;;;;-2.28;85.92;99622.60;106590;1304;22239;-72
2023/01/06 11:30:25;;;;;;;2.50;2.10;;;;;;;-2.32;85.56;99628.36;106417;1305;137301;-72
2023/01/06 11:32:52;;;;;;;1.90;1.70;;;;;;;-2.35;85.70;99621.48;106530;1306;22413;-73
2023/01/06 11:35:20;;;;;;;4.60;2.50;;;;;;;-2.41;85.53;99619.23;106500;1306;137686;-74
2023/01/06 11:37:47;;;;;;;2.00;1.60;;;;;;;-2.39;85.59;99639.33;106492;1306;22114;-73
2023/01/06 11:40:20;;;;;;;3.00;2.10;;;;;;;-2.44;85.46;99648.95;106555;1303;23366;-63
2023/01/06 11:42:48;;;;;;;3.50;2.30;;;;;;;-2.45;85.51;99655.89;106525;1304;137873;-63
2023/01/06 11:45:29;;;;;;;2.20;1.80;;;;;;;-2.48;85.24;99658.71;106552;1306;22124;-63
2023/01/06 11:47:55;;;;;;;4.60;1.90;;;;;;;-2.47;85.86;99654.55;106416;1306;138042;-64
2023/01/06 11:50:22;;;;;;;3.50;2.00;;;;;;;-2.43;86.23;99659.58;106558;1295;22198;-62
2023/01/06 11:52:59;;;;;;;3.00;2.10;;;;;;;-2.42;86.25;99658.73;106759;1302;22119;-62
2023/01/06 11:55:26;;;;;;;5.60;2.90;;;;;;;-2.43;86.05;99659.17;106671;1300;137468;-62
2023/01/06 11:58:03;;;;;;;8.80;4.60;;;;;;;-2.50;86.25;99655.14;106765;1302;22318;-64
2023/01/06 12:00:45;;;;;;;7.70;4.10;;;;;;;-2.48;86.51;99663.27;106590;1302;137024;-63